Time;durP1;ratioP1;P1;durP2;ratioP2;P2;SDS_P1;SDS_P2;PMS_P1;PMS_P2;Temp;Humidity;BMP_temperature;BMP_pressure;BME280_temperature;BME280_humidity;BME280_pressure;Samples;Min_cycle;Max_cycle;Signal;HPM_P1;HPM_P2
2023/04/24 00:00:23;;;;;;;0.10;0.10;;;;;;;11.95;72.71;100001.81;5057325;28;20021;-83
2023/04/24 00:02:50;;;;;;;0.20;0.20;;;;;;;11.98;72.33;99993.72;5049128;28;20559;-83
2023/04/24 00:05:17;;;;;;;0.10;0.10;;;;;;;12.00;72.92;99995.47;5060458;28;20033;-85
2023/04/24 00:07:44;;;;;;;0.10;0.10;;;;;;;11.99;72.54;99999.94;5060941;28;20561;-84
2023/04/24 00:10:11;;;;;;;0.15;0.15;;;;;;;11.98;73.06;99999.03;5061218;28;20028;-85
2023/04/24 00:12:37;;;;;;;0.10;0.10;;;;;;;11.98;72.93;99999.03;5050972;28;20036;-84
2023/04/24 00:15:05;;;;;;;0.10;0.10;;;;;;;12.00;72.97;99995.47;5061024;28;20033;-84
2023/04/24 00:17:31;;;;;;;0.10;0.10;;;;;;;11.98;72.96;100001.69;5055330;28;20033;-84
2023/04/24 00:19:58;;;;;;;0.30;0.30;;;;;;;11.98;72.58;100001.69;5054572;28;20029;-84
2023/04/24 00:22:26;;;;;;;0.40;0.40;;;;;;;12.00;72.42;100003.44;5051188;28;20036;-84
2023/04/24 00:24:52;;;;;;;0.10;0.10;;;;;;;11.98;73.14;99995.53;5053619;28;20053;-84
2023/04/24 00:27:18;;;;;;;0.20;0.20;;;;;;;11.98;73.19;100004.34;5065097;28;20041;-84
2023/04/24 00:29:44;;;;;;;0.75;0.75;;;;;;;12.05;72.62;100004.13;5063845;28;20040;-84
2023/04/24 00:32:11;;;;;;;0.10;0.10;;;;;;;12.06;73.04;100000.53;5055048;28;20033;-83
2023/04/24 00:34:37;;;;;;;0.10;0.10;;;;;;;12.09;72.65;100009.25;5045754;28;20037;-84
2023/04/24 00:37:03;;;;;;;0.17;0.17;;;;;;;12.09;72.50;99995.97;5058548;28;20043;-83
2023/04/24 00:39:29;;;;;;;0.10;0.10;;;;;;;12.16;72.67;99990.41;5058689;28;20476;-83
2023/04/24 00:41:56;;;;;;;0.10;0.10;;;;;;;12.16;72.57;100001.03;5051396;28;20055;-83
2023/04/24 00:44:22;;;;;;;0.10;0.10;;;;;;;12.09;73.30;100001.28;5038370;28;20029;-84
2023/04/24 00:46:51;;;;;;;0.10;0.10;;;;;;;12.15;72.92;100005.50;5048854;28;20033;-84
2023/04/24 00:49:18;;;;;;;0.10;0.10;;;;;;;12.17;72.62;100006.28;5048207;28;20033;-83
2023/04/24 00:51:45;;;;;;;0.10;0.10;;;;;;;12.17;72.90;100008.94;5054724;28;20495;-83
2023/04/24 00:54:12;;;;;;;0.10;0.10;;;;;;;12.16;72.28;100007.19;5054394;28;20036;-86
2023/04/24 00:56:39;;;;;;;0.10;0.10;;;;;;;12.14;72.51;100003.75;5051138;28;20072;-83
2023/04/24 00:59:06;;;;;;;0.10;0.10;;;;;;;12.16;72.47;100006.34;5051026;28;20120;-83
2023/04/24 01:01:32;;;;;;;0.10;0.10;;;;;;;12.18;72.42;100002.69;5046655;28;20116;-83
2023/04/24 01:03:59;;;;;;;0.10;0.10;;;;;;;12.16;72.72;100001.88;5044378;28;20037;-83
2023/04/24 01:06:30;;;;;;;0.10;0.10;;;;;;;12.14;72.94;100006.41;5049200;28;20033;-83
2023/04/24 01:08:59;;;;;;;0.10;0.10;;;;;;;12.12;72.61;100002.94;5051289;28;20036;-83
2023/04/24 01:11:25;;;;;;;0.00;0.00;;;;;;;12.08;72.95;100010.16;5051440;28;20052;-83
2023/04/24 01:13:52;;;;;;;0.10;0.10;;;;;;;12.07;73.02;100004.94;5054750;28;20048;-83
2023/04/24 01:16:20;;;;;;;0.10;0.10;;;;;;;12.03;72.77;100000.69;5053738;28;20140;-83
2023/04/24 01:18:46;;;;;;;0.20;0.20;;;;;;;11.98;72.97;100001.69;5054743;28;20431;-83
2023/04/24 01:21:16;;;;;;;0.10;0.10;;;;;;;11.97;72.74;99997.34;5051791;28;20476;-84
2023/04/24 01:23:43;;;;;;;0.10;0.10;;;;;;;11.97;72.42;100004.41;5051657;28;20495;-82
2023/04/24 01:26:09;;;;;;;0.10;0.10;;;;;;;11.95;72.82;100007.09;5051164;28;20051;-83
2023/04/24 01:28:35;;;;;;;0.10;0.10;;;;;;;11.97;72.42;100004.41;5052447;28;20043;-84
2023/04/24 01:31:01;;;;;;;0.10;0.10;;;;;;;11.98;72.27;100004.34;5052316;28;20036;-83
2023/04/24 01:33:28;;;;;;;0.20;0.20;;;;;;;12.03;72.96;100008.63;5052925;28;20033;-83
2023/04/24 01:35:54;;;;;;;0.10;0.10;;;;;;;12.03;72.72;99998.03;5047399;28;20037;-83
2023/04/24 01:38:21;;;;;;;0.10;0.10;;;;;;;12.05;72.52;100005.00;5055506;28;20162;-83
2023/04/24 01:40:47;;;;;;;0.10;0.10;;;;;;;12.03;72.65;100017.47;5051603;28;20082;-82
2023/04/24 01:43:14;;;;;;;0.10;0.10;;;;;;;12.00;72.67;100006.97;5048024;28;20045;-83
2023/04/24 01:45:40;;;;;;;0.10;0.10;;;;;;;12.00;73.15;100006.97;5074283;28;20063;-83
2023/04/24 01:48:06;;;;;;;0.10;0.10;;;;;;;11.94;73.04;100010.69;5076386;28;20060;-84
2023/04/24 01:50:32;;;;;;;0.13;0.13;;;;;;;11.97;72.61;100005.31;5067866;28;20030;-85
2023/04/24 01:52:59;;;;;;;0.10;0.10;;;;;;;11.98;72.95;100004.34;5055320;28;20036;-83
2023/04/24 01:55:25;;;;;;;0.10;0.10;;;;;;;12.00;72.51;100001.66;5050621;28;20025;-83
2023/04/24 01:57:55;;;;;;;0.10;0.10;;;;;;;12.02;73.19;100005.09;5051851;28;20123;-84
2023/04/24 02:00:21;;;;;;;0.20;0.20;;;;;;;12.08;72.38;100004.84;5048090;28;20017;-82
2023/04/24 02:02:47;;;;;;;0.10;0.10;;;;;;;12.02;72.97;100004.25;5051451;28;20036;-83
2023/04/24 02:05:14;;;;;;;0.10;0.10;;;;;;;12.03;72.25;100000.69;5043022;28;20029;-82
2023/04/24 02:07:40;;;;;;;0.10;0.10;;;;;;;12.03;73.00;100001.53;5050979;28;20613;-82
2023/04/24 02:10:06;;;;;;;0.68;0.68;;;;;;;11.97;72.89;100007.97;5052324;28;20025;-83
2023/04/24 02:12:33;;;;;;;0.30;0.30;;;;;;;11.95;72.80;100003.56;5051440;28;20093;-82
2023/04/24 02:14:59;;;;;;;0.10;0.10;;;;;;;11.93;72.37;100000.13;5052237;28;20021;-82
2023/04/24 02:17:25;;;;;;;0.10;0.10;;;;;;;11.93;72.59;100006.28;5052223;28;20025;-82
2023/04/24 02:19:51;;;;;;;0.10;0.10;;;;;;;11.94;72.39;100001.88;5047342;28;20396;-82
2023/04/24 02:22:17;;;;;;;0.10;0.10;;;;;;;11.93;72.96;100001.00;5049765;28;20037;-82
2023/04/24 02:24:44;;;;;;;0.52;0.52;;;;;;;11.95;72.27;100008.88;5048552;28;20025;-83
2023/04/24 02:27:11;;;;;;;0.10;0.10;;;;;;;11.95;72.20;100009.78;5050760;28;20315;-83
2023/04/24 02:29:37;;;;;;;0.10;0.10;;;;;;;11.93;72.30;100011.59;5053222;28;20021;-83
2023/04/24 02:32:03;;;;;;;0.20;0.20;;;;;;;11.94;72.73;100005.38;5045860;28;20028;-83
2023/04/24 02:34:29;;;;;;;0.10;0.10;;;;;;;11.93;72.73;100005.44;5052800;28;20029;-83
2023/04/24 02:36:55;;;;;;;0.20;0.20;;;;;;;11.97;72.21;100002.66;5046618;28;20036;-83
2023/04/24 02:39:21;;;;;;;0.10;0.10;;;;;;;11.96;72.32;99995.59;5043897;28;20104;-83
2023/04/24 02:41:48;;;;;;;0.10;0.10;;;;;;;11.97;72.14;100001.78;5053739;28;20045;-83
2023/04/24 02:44:14;;;;;;;0.20;0.20;;;;;;;11.95;72.34;100003.56;5051831;28;20045;-83
2023/04/24 02:46:41;;;;;;;0.10;0.10;;;;;;;11.95;72.88;99999.16;5045739;28;20032;-83
2023/04/24 02:49:07;;;;;;;0.10;0.10;;;;;;;11.96;72.97;100003.56;5049735;28;20036;-83
2023/04/24 02:51:33;;;;;;;0.10;0.10;;;;;;;11.95;72.42;100007.09;5048894;28;20484;-84
2023/04/24 02:53:59;;;;;;;0.10;0.10;;;;;;;11.95;72.80;99993.84;5050972;28;20108;-84
2023/04/24 02:56:26;;;;;;;0.10;0.10;;;;;;;11.92;72.94;99993.94;5045632;28;20033;-83
2023/04/24 02:58:52;;;;;;;0.10;0.10;;;;;;;11.94;72.76;99992.09;5045112;28;20036;-83
2023/04/24 03:01:18;;;;;;;0.10;0.10;;;;;;;11.87;72.39;99990.59;5047279;28;20540;-83
2023/04/24 03:03:44;;;;;;;0.10;0.10;;;;;;;11.87;73.00;99992.41;5055531;28;20044;-83
2023/04/24 03:06:10;;;;;;;0.10;0.10;;;;;;;11.87;72.46;99990.59;5054731;28;20056;-83
2023/04/24 03:08:36;;;;;;;0.30;0.30;;;;;;;11.86;72.29;99990.69;5054492;28;20031;-83
2023/04/24 03:11:02;;;;;;;0.17;0.17;;;;;;;11.82;72.86;99990.81;5054928;28;20108;-83
2023/04/24 03:13:29;;;;;;;0.10;0.10;;;;;;;11.85;72.27;99994.25;5051258;28;20120;-83
2023/04/24 03:15:55;;;;;;;0.10;0.10;;;;;;;11.68;73.06;100001.06;5053912;28;20025;-84
2023/04/24 03:18:21;;;;;;;0.10;0.10;;;;;;;11.75;73.07;100004.34;5052125;28;20377;-84
2023/04/24 03:20:47;;;;;;;0.05;0.05;;;;;;;11.65;72.97;100001.19;5049656;28;20025;-84
2023/04/24 03:23:13;;;;;;;0.15;0.15;;;;;;;11.71;72.65;100000.09;5053935;28;20032;-83
2023/04/24 03:25:40;;;;;;;0.10;0.10;;;;;;;11.68;72.83;100000.22;5052059;28;20078;-83
2023/04/24 03:28:06;;;;;;;0.10;0.10;;;;;;;11.61;73.10;100000.47;5053975;28;20064;-83
2023/04/24 03:30:32;;;;;;;0.13;0.13;;;;;;;11.54;72.80;99995.41;5050008;28;20025;-83
2023/04/24 03:32:58;;;;;;;0.10;0.10;;;;;;;11.47;72.88;99993.00;5050333;28;20065;-83
2023/04/24 03:35:25;;;;;;;0.10;0.10;;;;;;;11.45;72.78;100005.47;5050214;28;20036;-83
2023/04/24 03:37:51;;;;;;;0.10;0.10;;;;;;;11.47;72.79;99997.44;5049357;28;20032;-83
2023/04/24 03:40:17;;;;;;;0.10;0.10;;;;;;;11.41;72.67;99997.69;5054877;28;20036;-82
2023/04/24 03:42:43;;;;;;;0.10;0.10;;;;;;;11.40;72.75;100006.53;5055806;28;20033;-82
2023/04/24 03:45:09;;;;;;;0.10;0.10;;;;;;;11.38;72.86;99996.00;5055513;28;20033;-82
2023/04/24 03:47:35;;;;;;;0.20;0.20;;;;;;;11.31;73.03;100002.44;5055030;28;20530;-83
2023/04/24 03:50:02;;;;;;;0.10;0.10;;;;;;;11.28;73.25;99997.28;5051653;28;20033;-84
2023/04/24 03:52:28;;;;;;;0.10;0.10;;;;;;;11.28;73.56;100002.56;5024959;28;20090;-83
2023/04/24 03:54:55;;;;;;;0.10;0.10;;;;;;;11.28;72.80;100006.06;5053549;28;20029;-83
2023/04/24 03:57:21;;;;;;;0.10;0.10;;;;;;;11.25;73.17;100018.59;5054583;28;20047;-82
2023/04/24 03:59:47;;;;;;;0.10;0.10;;;;;;;11.28;73.17;100016.69;5055102;28;20361;-82
2023/04/24 04:02:14;;;;;;;0.10;0.10;;;;;;;11.27;73.36;100016.75;5054893;28;20448;-84
2023/04/24 04:04:40;;;;;;;0.10;0.10;;;;;;;11.28;73.25;100014.03;5054751;28;20128;-84
2023/04/24 04:07:06;;;;;;;0.10;0.10;;;;;;;11.30;72.78;100012.19;5057018;28;20391;-84
2023/04/24 04:09:32;;;;;;;0.10;0.10;;;;;;;11.29;72.78;100021.06;5056083;28;20472;-84
2023/04/24 04:11:58;;;;;;;0.10;0.10;;;;;;;11.31;73.25;100027.19;5052247;28;20025;-82
2023/04/24 04:14:24;;;;;;;0.10;0.10;;;;;;;11.31;72.75;100028.97;5053784;28;20039;-83
2023/04/24 04:16:51;;;;;;;0.10;0.10;;;;;;;11.33;72.89;100025.34;5071132;28;20055;-84
2023/04/24 04:19:17;;;;;;;0.05;0.05;;;;;;;11.38;73.22;100030.47;5068026;28;20028;-84
2023/04/24 04:21:45;;;;;;;0.10;0.10;;;;;;;11.39;72.80;100026.91;5054845;28;20041;-84
2023/04/24 04:24:11;;;;;;;0.10;0.10;;;;;;;11.41;72.99;100034.81;5063390;28;20036;-83
2023/04/24 04:26:38;;;;;;;0.10;0.10;;;;;;;11.39;73.05;100036.63;5056237;28;20033;-82
2023/04/24 04:29:04;;;;;;;0.10;0.10;;;;;;;11.38;73.23;100034.94;5055544;28;20507;-83
2023/04/24 04:31:30;;;;;;;0.10;0.10;;;;;;;11.37;72.96;100049.13;5049813;28;20647;-83
2023/04/24 04:33:56;;;;;;;0.20;0.20;;;;;;;11.36;72.86;100055.34;5054786;28;20040;-85
2023/04/24 04:36:23;;;;;;;0.10;0.10;;;;;;;11.34;73.19;100060.69;5048820;28;20572;-84
2023/04/24 04:38:49;;;;;;;0.10;0.10;;;;;;;11.35;72.87;100066.84;5058698;28;20492;-83
2023/04/24 04:41:18;;;;;;;0.20;0.20;;;;;;;11.33;73.06;100067.78;5057239;28;20036;-83
2023/04/24 04:43:44;;;;;;;0.20;0.20;;;;;;;11.34;72.89;100079.25;5051887;28;20090;-83
2023/04/24 04:46:10;;;;;;;0.10;0.10;;;;;;;11.36;72.89;100085.34;5057047;28;20028;-84
2023/04/24 04:48:37;;;;;;;0.10;0.10;;;;;;;11.37;72.77;100080.94;5056089;28;20083;-84
2023/04/24 04:51:04;;;;;;;0.10;0.10;;;;;;;11.35;73.07;100077.47;5047946;28;20025;-84
2023/04/24 04:53:30;;;;;;;0.10;0.10;;;;;;;11.35;73.13;100085.41;5048343;28;20021;-85
2023/04/24 04:55:56;;;;;;;0.10;0.10;;;;;;;11.32;73.10;100089.91;5056218;28;20094;-86
2023/04/24 04:58:23;;;;;;;0.10;0.10;;;;;;;11.33;72.74;100091.63;5051607;28;20025;-85
2023/04/24 05:00:49;;;;;;;0.10;0.10;;;;;;;11.35;73.01;100103.97;5044235;28;20040;-85
2023/04/24 05:03:15;;;;;;;0.10;0.10;;;;;;;11.33;73.18;100102.25;5069900;28;20033;-85
2023/04/24 05:05:41;;;;;;;0.10;0.10;;;;;;;11.38;73.12;100104.75;5067116;28;20492;-86
2023/04/24 05:08:08;;;;;;;0.10;0.10;;;;;;;11.42;72.94;100100.19;5053871;28;20400;-86
2023/04/24 05:10:34;;;;;;;0.10;0.10;;;;;;;11.39;73.19;100111.78;5056275;28;20029;-85
2023/04/24 05:13:04;;;;;;;0.10;0.10;;;;;;;11.40;72.92;100123.25;5062165;28;20029;-85
2023/04/24 05:15:30;;;;;;;0.10;0.10;;;;;;;11.30;73.46;100134.19;5058823;28;20025;-83
2023/04/24 05:17:56;;;;;;;0.20;0.20;;;;;;;11.24;74.11;100139.72;5056587;28;20488;-84
2023/04/24 05:20:22;;;;;;;0.10;0.10;;;;;;;11.32;74.35;100148.25;5055014;28;20491;-85
2023/04/24 05:22:48;;;;;;;0.10;0.10;;;;;;;11.28;74.13;100151.94;5054709;28;20047;-84
2023/04/24 05:25:15;;;;;;;0.10;0.10;;;;;;;11.33;74.29;100155.28;5046432;28;20033;-84
2023/04/24 05:27:41;;;;;;;0.63;0.57;;;;;;;11.37;73.63;100164.00;5051093;28;20033;-83
2023/04/24 05:30:07;;;;;;;0.20;0.20;;;;;;;11.37;73.86;100173.75;5042463;28;20578;-85
2023/04/24 05:32:33;;;;;;;0.10;0.10;;;;;;;11.30;74.42;100186.34;5048230;28;20093;-85
2023/04/24 05:35:00;;;;;;;0.32;0.32;;;;;;;11.26;74.34;100188.22;5053570;28;20067;-84
2023/04/24 05:37:26;;;;;;;0.13;0.13;;;;;;;11.20;74.43;100201.69;5052886;28;20037;-83
2023/04/24 05:39:52;;;;;;;0.10;0.10;;;;;;;10.99;75.20;100209.44;5038287;28;20041;-83
2023/04/24 05:42:18;;;;;;;0.22;0.22;;;;;;;11.09;74.66;100211.78;5056976;28;20499;-83
2023/04/24 05:44:44;;;;;;;0.10;0.10;;;;;;;11.12;74.33;100222.31;5057091;28;20036;-84
2023/04/24 05:47:10;;;;;;;0.20;0.20;;;;;;;11.10;74.10;100232.09;5054113;28;20037;-85
2023/04/24 05:49:36;;;;;;;1.95;1.85;;;;;;;11.08;73.92;100252.47;5045971;28;20100;-84
2023/04/24 05:52:03;;;;;;;0.30;0.30;;;;;;;11.05;73.76;100250.78;5052330;28;20068;-85
2023/04/24 05:54:30;;;;;;;0.10;0.10;;;;;;;11.02;74.21;100250.88;5056317;28;20116;-84
2023/04/24 05:56:58;;;;;;;0.43;0.43;;;;;;;10.92;74.18;100265.34;5058519;28;20044;-84
2023/04/24 05:59:25;;;;;;;1.25;0.82;;;;;;;10.94;74.00;100268.81;5060163;28;20021;-84
2023/04/24 06:01:51;;;;;;;0.10;0.10;;;;;;;10.91;74.06;100275.06;5054970;28;20033;-84
2023/04/24 06:04:17;;;;;;;0.20;0.20;;;;;;;10.78;74.20;100284.31;5052887;28;20119;-83
2023/04/24 06:06:43;;;;;;;0.10;0.10;;;;;;;10.77;74.19;100288.75;5055837;28;20044;-84
2023/04/24 06:09:10;;;;;;;0.20;0.20;;;;;;;10.87;73.97;100304.38;5053770;28;20060;-85
2023/04/24 06:11:36;;;;;;;0.10;0.10;;;;;;;10.78;74.13;100303.72;5056447;28;20017;-84
2023/04/24 06:14:02;;;;;;;0.40;0.40;;;;;;;10.78;74.23;100322.28;5053253;28;20037;-83
2023/04/24 06:16:29;;;;;;;0.10;0.10;;;;;;;10.73;74.12;100318.00;5052418;28;20036;-81
2023/04/24 06:18:55;;;;;;;0.20;0.20;;;;;;;10.68;74.26;100320.81;5051173;28;20029;-83
2023/04/24 06:21:21;;;;;;;0.15;0.15;;;;;;;10.72;74.25;100327.75;5057201;28;20025;-82
2023/04/24 06:23:47;;;;;;;0.77;0.77;;;;;;;10.72;74.10;100332.22;5049943;28;20075;-84
2023/04/24 06:26:14;;;;;;;0.10;0.10;;;;;;;10.72;73.92;100348.09;5048900;28;20518;-83
2023/04/24 06:28:40;;;;;;;0.10;0.10;;;;;;;10.78;73.69;100350.53;5058706;28;20032;-85
2023/04/24 06:31:08;;;;;;;0.60;0.60;;;;;;;10.76;74.28;100365.63;5052388;28;20036;-85
2023/04/24 06:33:34;;;;;;;5.78;1.42;;;;;;;10.67;73.91;100367.63;5056879;28;20033;-83
2023/04/24 06:36:00;;;;;;;0.10;0.10;;;;;;;10.73;74.15;100371.91;5056276;28;20104;-84
2023/04/24 06:38:26;;;;;;;0.77;0.77;;;;;;;10.77;73.95;100383.28;5054657;28;20033;-84
2023/04/24 06:40:52;;;;;;;0.30;0.30;;;;;;;10.73;74.26;100386.91;5049294;28;20037;-83
2023/04/24 06:43:19;;;;;;;0.85;0.85;;;;;;;10.68;74.04;100401.16;5054222;28;20040;-84
2023/04/24 06:45:46;;;;;;;0.55;0.55;;;;;;;10.67;74.27;100399.41;5042534;28;20029;-84
2023/04/24 06:48:12;;;;;;;0.90;0.90;;;;;;;10.67;74.18;100402.06;5050423;28;20040;-84
2023/04/24 06:50:38;;;;;;;0.90;0.90;;;;;;;10.65;74.35;100410.97;5050468;28;20025;-84
2023/04/24 06:53:04;;;;;;;1.80;1.67;;;;;;;10.71;74.31;100415.25;5046584;28;20036;-85
2023/04/24 06:55:30;;;;;;;0.10;0.10;;;;;;;10.67;73.95;100428.56;5054368;28;20036;-86
2023/04/24 06:57:56;;;;;;;0.20;0.20;;;;;;;10.73;74.07;100431.97;5048883;28;20114;-85
2023/04/24 07:00:24;;;;;;;0.10;0.10;;;;;;;10.80;73.77;100429.13;5052906;28;20039;-84
2023/04/24 07:02:50;;;;;;;0.10;0.10;;;;;;;10.71;73.87;100436.44;5037094;28;20091;-84
2023/04/24 07:05:19;;;;;;;0.30;0.30;;;;;;;10.72;74.10;100443.50;5054893;28;20033;-83
2023/04/24 07:07:47;;;;;;;1.83;1.73;;;;;;;10.72;73.78;100447.00;5054434;28;20774;-84
2023/04/24 07:10:14;;;;;;;0.15;0.15;;;;;;;10.68;73.53;100443.56;5054639;28;20029;-85
2023/04/24 07:12:40;;;;;;;0.10;0.10;;;;;;;10.71;73.74;100455.84;5047776;28;20067;-85
2023/04/24 07:15:08;;;;;;;0.50;0.50;;;;;;;10.61;74.22;100465.81;5053863;28;20038;-85
2023/04/24 07:17:35;;;;;;;0.10;0.10;;;;;;;10.58;73.87;100478.28;5039623;28;20407;-83
2023/04/24 07:20:01;;;;;;;0.05;0.05;;;;;;;10.51;74.01;100478.44;5055293;28;20492;-83
2023/04/24 07:22:27;;;;;;;0.20;0.20;;;;;;;10.38;74.17;100492.03;5054447;28;20033;-84
2023/04/24 07:24:53;;;;;;;0.30;0.30;;;;;;;10.44;74.21;100492.75;5055858;28;20037;-83
2023/04/24 07:27:19;;;;;;;0.20;0.20;;;;;;;10.44;73.84;100487.47;5053605;28;20036;-83
2023/04/24 07:29:45;;;;;;;0.10;0.10;;;;;;;10.49;73.98;100489.97;5053293;28;20033;-83
2023/04/24 07:32:11;;;;;;;0.15;0.15;;;;;;;10.38;74.05;100502.63;5051245;28;20043;-83
2023/04/24 07:34:37;;;;;;;2.65;2.45;;;;;;;10.45;73.85;100499.78;5053092;28;20633;-82
2023/04/24 07:37:03;;;;;;;0.47;0.47;;;;;;;10.42;73.81;100510.47;5054519;28;20079;-85
2023/04/24 07:39:29;;;;;;;0.15;0.15;;;;;;;10.47;73.46;100521.81;5054116;28;20053;-86
2023/04/24 07:41:55;;;;;;;0.50;0.50;;;;;;;10.51;73.67;100517.31;5055930;28;20520;-86
2023/04/24 07:44:21;;;;;;;0.13;0.13;;;;;;;10.58;73.27;100518.91;5054967;28;20029;-84
2023/04/24 07:46:48;;;;;;;0.95;0.95;;;;;;;10.49;73.12;100549.13;5055342;28;20029;-81
2023/04/24 07:49:14;;;;;;;0.10;0.10;;;;;;;10.58;73.25;100542.75;5056334;28;20032;-82
2023/04/24 07:51:41;;;;;;;0.55;0.55;;;;;;;10.60;72.73;100546.22;5058212;28;20028;-84
2023/04/24 07:54:07;;;;;;;0.30;0.30;;;;;;;10.70;72.68;100552.16;5058044;28;20153;-81
2023/04/24 07:56:34;;;;;;;0.10;0.10;;;;;;;10.64;72.50;100560.25;5056809;28;20448;-80
2023/04/24 07:59:01;;;;;;;2.15;2.05;;;;;;;10.74;72.52;100555.59;5053013;28;20028;-82
2023/04/24 08:01:27;;;;;;;0.10;0.10;;;;;;;10.86;71.91;100563.22;5058463;28;20031;-80
2023/04/24 08:03:53;;;;;;;0.10;0.10;;;;;;;10.86;71.55;100563.22;5071362;28;20025;-81
2023/04/24 08:06:19;;;;;;;0.45;0.45;;;;;;;10.81;71.23;100565.13;5065437;28;20096;-82
2023/04/24 08:08:45;;;;;;;0.10;0.10;;;;;;;10.89;71.01;100587.03;5058252;28;20632;-82
2023/04/24 08:11:11;;;;;;;0.10;0.10;;;;;;;10.92;70.34;100578.97;5058096;28;20403;-82
2023/04/24 08:13:37;;;;;;;0.13;0.13;;;;;;;10.84;70.40;100583.59;5058189;28;20025;-81
2023/04/24 08:16:03;;;;;;;0.10;0.10;;;;;;;10.90;70.75;100595.84;5054112;28;20428;-83
2023/04/24 08:18:29;;;;;;;0.65;0.57;;;;;;;10.89;70.37;100602.94;5058849;28;20587;-82
2023/04/24 08:21:01;;;;;;;0.47;0.47;;;;;;;10.72;70.06;100613.09;5056989;28;20056;-81
2023/04/24 08:23:27;;;;;;;0.10;0.10;;;;;;;10.67;69.57;100613.19;5056495;28;20075;-84
2023/04/24 08:25:53;;;;;;;0.10;0.10;;;;;;;10.75;69.30;100613.00;5057282;28;20510;-81
2023/04/24 08:28:20;;;;;;;0.10;0.10;;;;;;;10.73;70.04;100615.69;5059231;28;20051;-82
2023/04/24 08:30:47;;;;;;;0.38;0.38;;;;;;;10.73;68.34;100638.66;5053833;28;20137;-83
2023/04/24 08:33:13;;;;;;;0.52;0.52;;;;;;;10.78;69.09;100628.81;5058593;28;20029;-83
2023/04/24 08:35:40;;;;;;;0.20;0.20;;;;;;;10.84;69.01;100645.44;5059249;28;20028;-82
2023/04/24 08:38:06;;;;;;;0.38;0.38;;;;;;;10.82;67.82;100647.25;5050363;28;20519;-83
2023/04/24 08:40:34;;;;;;;0.20;0.20;;;;;;;10.86;66.96;100653.34;5054001;28;20032;-82
2023/04/24 08:43:00;;;;;;;0.50;0.50;;;;;;;10.92;66.80;100645.25;5054690;28;20065;-84
2023/04/24 08:45:27;;;;;;;0.10;0.10;;;;;;;10.92;65.90;100647.91;5057015;28;20037;-83
2023/04/24 08:47:54;;;;;;;0.10;0.10;;;;;;;11.04;65.53;100645.84;5058497;28;20492;-82
2023/04/24 08:50:21;;;;;;;0.10;0.10;;;;;;;11.10;65.25;100632.44;5056175;28;20078;-83
2023/04/24 08:52:50;;;;;;;0.10;0.10;;;;;;;11.01;63.82;100654.75;5057472;28;20191;-83
2023/04/24 08:55:18;;;;;;;0.75;0.40;;;;;;;11.14;64.59;100652.66;5057850;28;20067;-82
2023/04/24 08:57:45;;;;;;;0.20;0.20;;;;;;;11.19;63.58;100664.03;5056631;28;20104;-82
2023/04/24 09:00:12;;;;;;;0.10;0.10;;;;;;;11.08;62.58;100659.00;5056020;28;20028;-83
2023/04/24 09:02:43;;;;;;;0.10;0.10;;;;;;;11.08;62.51;100672.25;5056426;28;20064;-81
2023/04/24 09:05:11;;;;;;;0.10;0.10;;;;;;;10.97;62.50;100684.91;5056706;28;20025;-82
2023/04/24 09:07:42;;;;;;;0.17;0.17;;;;;;;10.96;62.51;100676.06;5057760;28;20111;-82
2023/04/24 09:10:08;;;;;;;0.10;0.10;;;;;;;10.93;62.46;100669.97;5057436;28;20021;-82
2023/04/24 09:12:35;;;;;;;0.10;0.10;;;;;;;10.97;62.66;100675.16;5057545;28;20055;-82
2023/04/24 09:15:03;;;;;;;0.10;0.10;;;;;;;11.04;62.70;100682.97;5055586;28;20051;-82
2023/04/24 09:17:32;;;;;;;0.10;0.10;;;;;;;11.10;62.92;100678.41;5052516;28;20078;-82
2023/04/24 09:19:58;;;;;;;5.57;2.72;;;;;;;11.19;62.49;100682.59;5056304;28;20439;-81
2023/04/24 09:22:24;;;;;;;0.10;0.10;;;;;;;11.36;62.37;100683.94;5056196;28;20074;-82
2023/04/24 09:25:03;;;;;;;0.10;0.10;;;;;;;11.48;62.04;100696.91;5057008;28;20063;-82
2023/04/24 09:27:29;;;;;;;0.43;0.43;;;;;;;11.42;62.13;100705.00;5055987;28;20021;-82
2023/04/24 09:29:56;;;;;;;7.43;0.95;;;;;;;11.36;60.75;100706.03;5052380;28;20044;-78
2023/04/24 09:32:25;;;;;;;0.10;0.10;;;;;;;11.06;61.10;100708.53;5055925;28;20068;-80
2023/04/24 09:35:10;;;;;;;0.10;0.10;;;;;;;11.06;61.66;100712.97;5057780;28;20088;-80
2023/04/24 09:37:45;;;;;;;0.10;0.10;;;;;;;11.08;61.25;100717.34;5051129;28;20021;-81
2023/04/24 09:40:16;;;;;;;0.10;0.10;;;;;;;11.16;61.15;100725.09;5056471;28;20040;-80
2023/04/24 09:42:45;;;;;;;0.10;0.10;;;;;;;11.29;61.75;100715.94;5050952;28;20033;-80
2023/04/24 09:45:12;;;;;;;0.10;0.10;;;;;;;11.30;60.76;100720.34;5061395;28;20051;-80
2023/04/24 09:47:39;;;;;;;0.10;0.10;;;;;;;11.45;60.84;100726.13;5062459;28;20028;-80
2023/04/24 09:50:15;;;;;;;0.10;0.10;;;;;;;11.53;60.38;100713.56;5054861;28;20484;-80
2023/04/24 09:52:43;;;;;;;0.10;0.10;;;;;;;11.55;59.97;100722.38;5054182;28;20097;-81
2023/04/24 09:55:16;;;;;;;0.10;0.10;;;;;;;11.59;60.44;100731.09;5035116;28;20029;-81
2023/04/24 10:00:31;;;;;;;0.10;0.10;;;;;;;11.90;60.82;100736.47;5121879;27;20400;-81
2023/04/24 10:05:34;;;;;;;0.10;0.10;;;;;;;12.09;59.87;100739.50;5070537;28;20614;-81
2023/04/24 10:08:03;;;;;;;0.17;0.17;;;;;;;11.92;58.53;100747.91;5061165;28;20041;-81
2023/04/24 10:10:30;;;;;;;0.10;0.10;;;;;;;11.89;59.26;100761.28;5049973;28;20052;-81
2023/04/24 10:12:56;;;;;;;0.10;0.10;;;;;;;11.77;58.68;100754.50;5049857;28;20037;-81
2023/04/24 10:15:24;;;;;;;0.10;0.10;;;;;;;11.96;58.31;100765.53;5050351;28;20501;-79
2023/04/24 10:17:53;;;;;;;0.10;0.10;;;;;;;11.88;58.32;100766.63;5050799;28;20441;-81
2023/04/24 10:20:22;;;;;;;0.10;0.10;;;;;;;11.76;58.92;100783.75;5052236;28;20416;-81
2023/04/24 10:22:50;;;;;;;0.63;0.63;;;;;;;11.61;59.87;100783.25;5052656;28;20512;-81
2023/04/24 10:25:21;;;;;;;0.20;0.20;;;;;;;11.36;60.70;100805.97;5052046;28;20026;-81
2023/04/24 10:27:48;;;;;;;0.10;0.10;;;;;;;11.35;60.71;100785.66;5051196;28;20423;-81
2023/04/24 10:30:16;;;;;;;0.10;0.10;;;;;;;11.35;60.18;100783.00;5049461;28;20044;-81
2023/04/24 10:32:43;;;;;;;0.10;0.10;;;;;;;11.45;60.62;100789.81;5051875;28;20040;-79
2023/04/24 10:35:11;;;;;;;0.10;0.10;;;;;;;11.55;59.54;100788.69;5052986;28;20492;-81
2023/04/24 10:37:50;;;;;;;0.10;0.10;;;;;;;11.71;59.58;100775.03;5051993;28;20048;-81
2023/04/24 10:40:25;;;;;;;0.17;0.17;;;;;;;11.78;58.55;100777.47;5052748;28;20116;-81
2023/04/24 10:42:53;;;;;;;0.10;0.10;;;;;;;11.91;58.99;100793.97;5050604;28;20052;-81
2023/04/24 10:45:21;;;;;;;0.13;0.13;;;;;;;11.92;57.97;100777.09;5050927;28;20033;-81
2023/04/24 10:48:02;;;;;;;0.10;0.10;;;;;;;12.07;57.27;100794.44;5052680;28;20033;-80
2023/04/24 10:50:41;;;;;;;0.20;0.20;;;;;;;11.96;57.09;100804.47;5052957;28;20396;-81
2023/04/24 10:53:12;;;;;;;0.10;0.10;;;;;;;12.09;57.02;100818.31;5054333;28;20400;-80
2023/04/24 10:55:43;;;;;;;0.10;0.10;;;;;;;12.15;56.95;100796.91;5054152;28;20446;-81
2023/04/24 10:58:09;;;;;;;0.10;0.10;;;;;;;12.24;57.35;100817.91;5051950;28;20057;-79
2023/04/24 11:00:38;;;;;;;0.20;0.20;;;;;;;12.49;56.74;100798.63;5051515;28;20048;-79
2023/04/24 11:03:23;;;;;;;0.10;0.10;;;;;;;12.56;57.39;100818.78;5049856;28;20400;-80
2023/04/24 11:08:48;;;;;;;0.10;0.10;;;;;;;12.31;58.16;100807.97;5044563;28;20399;-81
2023/04/24 11:11:17;;;;;;;0.10;0.10;;;;;;;12.24;59.19;100823.22;4998443;28;20038;-80
2023/04/24 11:19:23;;;;;;;0.20;0.20;;;;;;;12.21;58.36;100827.72;5101790;27;1356206;-80
2023/04/24 11:22:14;;;;;;;0.10;0.10;;;;;;;12.38;58.59;100841.44;5127936;28;20103;-80
2023/04/24 11:27:21;;;;;;;0.10;0.10;;;;;;;12.76;58.78;100831.50;5102435;27;20389;-80
2023/04/24 11:30:00;;;;;;;0.10;0.10;;;;;;;12.91;56.88;100830.19;5090743;28;20088;-80
2023/04/24 11:32:34;;;;;;;0.10;0.10;;;;;;;13.11;55.90;100834.88;5092715;28;20031;-82
2023/04/24 11:35:05;;;;;;;0.10;0.10;;;;;;;13.34;55.98;100829.78;5099843;28;20032;-81
2023/04/24 11:40:15;;;;;;;0.10;0.10;;;;;;;13.74;54.77;100841.81;5117880;27;20380;-81
2023/04/24 11:42:43;;;;;;;0.10;0.10;;;;;;;13.83;53.92;100836.19;5097327;28;20071;-82
2023/04/24 11:45:14;;;;;;;0.10;0.10;;;;;;;13.79;53.10;100849.66;5104490;28;20050;-82